This is the latest recevied weather packets stored in our database for station/object SP1BMW-13. If no packets are shown the sender has not sent any weather packets the latest 10 day(s).
| Time | Temp. | Humidity | Pressure | Rain* | Wind** | Luminosity | Snow |
|---|---|---|---|---|---|---|---|
| 1787914338 | 23.89° C | 52% | 1009.5 hPa | 0 mm | 0.89 m/s, 3° | 180 W/m² | - |
| 1787914278 | 23.89° C | 52% | 1009.6 hPa | 0 mm | 0.89 m/s, 45° | 175 W/m² | - |
| 1787914217 | 23.89° C | 53% | 1009.7 hPa | 0 mm | 0.45 m/s, 105° | 175 W/m² | - |
| 1787914157 | 24.44° C | 51% | 1009.9 hPa | 0 mm | 0.89 m/s, 70° | 179 W/m² | - |
| 1787914098 | 24.44° C | 51% | 1009.9 hPa | 0 mm | 1.79 m/s, 59° | 184 W/m² | - |
| 1787914038 | 24.44° C | 50% | 1009.8 hPa | 0 mm | 0.89 m/s, 63° | 193 W/m² | - |
| 1787913977 | 24.44° C | 50% | 1009.8 hPa | 0 mm | 1.79 m/s, 8° | 202 W/m² | - |
| 1787913917 | 25° C | 51% | 1009.7 hPa | 0 mm | 1.34 m/s, 31° | 212 W/m² | - |
| 1787913857 | 25° C | 49% | 1009.6 hPa | 0 mm | 0.89 m/s, 116° | 218 W/m² | - |
| 1787913798 | 25° C | 51% | 1009.6 hPa | 0 mm | 0 m/s | 228 W/m² | - |
| 1787913738 | 25° C | 49% | 1009.7 hPa | 0 mm | 1.79 m/s, 350° | 250 W/m² | - |
| 1787913678 | 25° C | 49% | 1009.7 hPa | 0 mm | 0.45 m/s, 31° | 315 W/m² | - |
| 1787913617 | 25° C | 50% | 1009.8 hPa | 0 mm | 0 m/s | 693 W/m² | - |
| 1787913557 | 24.44° C | 50% | 1009.7 hPa | 0 mm | 0 m/s | 711 W/m² | - |
| 1787913497 | 24.44° C | 49% | 1009.8 hPa | 0 mm | 2.24 m/s, 83° | 712 W/m² | - |
| 1787913437 | 24.44° C | 51% | 1009.7 hPa | 0 mm | 1.34 m/s, 167° | 714 W/m² | - |
| 1787913378 | 24.44° C | 50% | 1009.7 hPa | 0 mm | 2.24 m/s, 91° | 707 W/m² | - |
| 1787913317 | 24.44° C | 51% | 1009.8 hPa | 0 mm | 1.34 m/s, 33° | 702 W/m² | - |
| 1787913257 | 23.89° C | 50% | 1009.9 hPa | 0 mm | 1.79 m/s, 59° | 701 W/m² | - |
| 1787913198 | 23.89° C | 51% | 1009.7 hPa | 0 mm | 2.24 m/s, 42° | 724 W/m² | - |
| 1787913138 | 23.89° C | 51% | 1009.6 hPa | 0 mm | 2.24 m/s, 63° | 718 W/m² | - |
| 1787913077 | 23.33° C | 53% | 1009.4 hPa | 0 mm | 2.24 m/s, 98° | 745 W/m² | - |
| 1787913017 | 23.33° C | 53% | 1009.5 hPa | 0 mm | 2.24 m/s, 48° | 766 W/m² | - |
| 1787912958 | 23.33° C | 53% | 1009.8 hPa | 0 mm | 1.79 m/s, 359° | 785 W/m² | - |
| 1787912898 | 23.33° C | 53% | 1009.6 hPa | 0 mm | 0.89 m/s, 34° | 577 W/m² | - |
* Rain latest hour (hover to see other rain measurements)
** Current wind speed in m/s (hover to see current wind gust speed)